Time;durP1;ratioP1;P1;durP2;ratioP2;P2;SDS_P1;SDS_P2;PMS_P1;PMS_P2;Temp;Humidity;BMP_temperature;BMP_pressure;BME280_temperature;BME280_humidity;BME280_pressure;Samples;Min_cycle;Max_cycle;Signal;HPM_P1;HPM_P2
2022/11/12 00:01:57;;;;;;;0.60;0.60;;;;;;;16.19;50.20;94868.09;5092421;28;20039;-84
2022/11/12 00:04:22;;;;;;;0.63;0.60;;;;;;;16.18;50.39;94872.03;5091048;27;20508;-84
2022/11/12 00:06:48;;;;;;;0.75;0.57;;;;;;;16.18;49.95;94874.78;5109025;28;20032;-84
2022/11/12 00:09:13;;;;;;;0.70;0.57;;;;;;;16.18;50.01;94866.59;5097478;27;20036;-84
2022/11/12 00:11:39;;;;;;;0.80;0.50;;;;;;;16.20;49.97;94867.66;5074500;28;20024;-84
2022/11/12 00:14:04;;;;;;;0.75;0.50;;;;;;;16.17;49.67;94870.53;5075702;28;20032;-84
2022/11/12 00:16:30;;;;;;;0.77;0.60;;;;;;;16.19;49.93;94868.09;5071589;28;20061;-84
2022/11/12 00:18:55;;;;;;;0.40;0.40;;;;;;;16.17;50.15;94867.81;5084673;28;20058;-84
2022/11/12 00:21:20;;;;;;;0.75;0.70;;;;;;;16.17;49.63;94863.09;5107653;28;20047;-84
2022/11/12 00:23:46;;;;;;;0.50;0.50;;;;;;;16.18;50.19;94863.88;5062293;28;20028;-84
2022/11/12 00:26:11;;;;;;;0.63;0.50;;;;;;;16.17;49.86;94859.63;5105922;27;20405;-84
2022/11/12 00:28:37;;;;;;;0.80;0.60;;;;;;;16.15;49.81;94871.00;5081421;28;20044;-84
2022/11/12 00:31:09;;;;;;;0.98;0.63;;;;;;;16.19;49.61;94866.13;5109649;27;20109;-84
2022/11/12 00:33:38;;;;;;;0.80;0.80;;;;;;;16.17;50.06;94860.38;5071500;28;20040;-84
2022/11/12 00:36:04;;;;;;;0.80;0.60;;;;;;;16.18;50.02;94861.88;5071110;28;20767;-84
2022/11/12 00:38:29;;;;;;;0.57;0.47;;;;;;;16.18;49.91;94866.59;5090237;28;20047;-84
2022/11/12 00:40:58;;;;;;;0.63;0.50;;;;;;;16.18;49.83;94855.69;5107910;28;20036;-84
2022/11/12 00:43:24;;;;;;;1.20;0.50;;;;;;;16.18;49.75;94863.88;5083915;28;20047;-84
2022/11/12 00:45:49;;;;;;;0.45;0.40;;;;;;;16.18;49.93;94869.31;5074428;28;20035;-84
2022/11/12 00:48:14;;;;;;;0.63;0.63;;;;;;;16.17;49.69;94868.56;5087431;28;20050;-84
2022/11/12 00:50:40;;;;;;;0.73;0.50;;;;;;;16.18;49.69;94866.59;5070576;28;20047;-84
2022/11/12 00:53:05;;;;;;;0.75;0.60;;;;;;;16.16;50.30;94872.50;5068847;28;20047;-84
2022/11/12 00:55:31;;;;;;;0.55;0.50;;;;;;;16.16;50.10;94867.03;5070812;28;20044;-84
2022/11/12 00:57:59;;;;;;;0.43;0.40;;;;;;;16.15;49.74;94868.25;5091082;28;20506;-84
2022/11/12 01:00:24;;;;;;;0.60;0.52;;;;;;;16.16;49.54;94872.50;5070150;28;20093;-84
2022/11/12 01:02:50;;;;;;;0.55;0.40;;;;;;;16.16;49.54;94864.31;5053789;28;20024;-84
2022/11/12 01:05:15;;;;;;;0.40;0.40;;;;;;;16.16;49.47;94863.56;5091430;28;20409;-84
2022/11/12 01:07:41;;;;;;;0.40;0.40;;;;;;;16.16;49.75;94864.31;5090390;28;20039;-84
2022/11/12 01:10:08;;;;;;;0.38;0.38;;;;;;;16.21;49.76;94857.50;5090428;28;20050;-84
2022/11/12 01:12:33;;;;;;;0.82;0.50;;;;;;;16.17;49.75;94868.56;5078683;28;20127;-84
2022/11/12 01:14:58;;;;;;;0.43;0.43;;;;;;;16.16;50.02;94863.56;5070283;28;20529;-84
2022/11/12 01:17:24;;;;;;;0.40;0.40;;;;;;;16.15;49.97;94865.53;5053380;28;20043;-84
2022/11/12 01:19:49;;;;;;;0.50;0.50;;;;;;;16.14;49.95;94858.56;5087675;28;20032;-84
2022/11/12 01:22:15;;;;;;;0.88;0.60;;;;;;;16.14;49.53;94850.38;5058664;28;20036;-84
2022/11/12 01:24:40;;;;;;;0.47;0.40;;;;;;;16.14;49.90;94853.09;5086746;28;20039;-84
2022/11/12 01:27:07;;;;;;;0.30;0.30;;;;;;;16.13;49.85;94848.09;5090514;28;20470;-84
2022/11/12 01:29:32;;;;;;;0.35;0.35;;;;;;;16.16;49.77;94847.94;5107555;28;20130;-83
2022/11/12 01:31:58;;;;;;;0.70;0.43;;;;;;;16.14;49.79;94841.44;5084970;28;20043;-84
2022/11/12 01:34:23;;;;;;;0.65;0.55;;;;;;;16.15;49.68;94854.63;5066305;28;20516;-84
2022/11/12 01:36:49;;;;;;;0.52;0.40;;;;;;;16.15;49.83;94853.88;5107277;28;20043;-84
2022/11/12 01:39:14;;;;;;;0.50;0.32;;;;;;;16.15;49.78;94845.69;5089915;28;20043;-84
2022/11/12 01:41:40;;;;;;;0.82;0.43;;;;;;;16.16;49.70;94841.72;5086874;28;20410;-84
2022/11/12 01:44:20;;;;;;;0.50;0.50;;;;;;;16.14;49.87;94831.28;5065468;28;20052;-84
2022/11/12 01:47:20;;;;;;;0.40;0.30;;;;;;;16.15;49.59;94832.78;5054628;28;20060;-84
2022/11/12 01:49:56;;;;;;;0.40;0.40;;;;;;;16.16;49.74;94823.41;5087259;28;20058;-84
2022/11/12 01:52:34;;;;;;;0.45;0.40;;;;;;;16.14;49.83;94830.53;5075356;28;20410;-84
2022/11/12 01:55:06;;;;;;;0.73;0.50;;;;;;;16.13;49.59;94832.50;5056860;28;20452;-84
2022/11/12 01:57:37;;;;;;;0.40;0.40;;;;;;;16.13;49.52;94834.47;5081578;28;20039;-84
2022/11/12 02:00:09;;;;;;;0.82;0.40;;;;;;;16.13;49.41;94829.78;5088378;28;20456;-84
2022/11/12 02:02:35;;;;;;;0.55;0.47;;;;;;;16.16;49.69;94828.84;5078575;28;20059;-84
2022/11/12 02:05:01;;;;;;;0.50;0.50;;;;;;;16.13;49.21;94832.50;5085872;28;20043;-84
2022/11/12 02:07:26;;;;;;;0.50;0.43;;;;;;;16.15;49.30;94832.03;5069406;28;20063;-84
2022/11/12 02:09:53;;;;;;;0.52;0.20;;;;;;;16.15;49.76;94829.31;5101913;28;20598;-84
2022/11/12 02:15:03;;;;;;;0.47;0.40;;;;;;;16.13;49.23;94823.56;5103464;28;20051;-85
2022/11/12 02:17:28;;;;;;;0.22;0.22;;;;;;;16.14;49.57;94825.81;5060050;28;20115;-84
2022/11/12 02:19:57;;;;;;;0.55;0.38;;;;;;;16.13;49.64;94818.09;5074246;28;20039;-84
2022/11/12 02:22:23;;;;;;;0.32;0.32;;;;;;;16.13;49.38;94820.84;5105959;28;20177;-84
2022/11/12 02:24:48;;;;;;;0.55;0.38;;;;;;;16.13;49.16;94810.69;5072154;28;20444;-84
2022/11/12 02:27:14;;;;;;;0.40;0.40;;;;;;;16.13;49.89;94813.41;5106398;28;20047;-84
2022/11/12 02:29:45;;;;;;;0.30;0.30;;;;;;;16.14;49.26;94816.88;5072648;28;20035;-84
2022/11/12 02:32:10;;;;;;;;;;;;;;;16.15;49.68;94805.50;5073416;28;20043;-84
2022/11/12 02:34:36;;;;;;;0.50;0.40;;;;;;;16.13;49.36;94796.28;5089201;28;20314;-84
2022/11/12 02:37:01;;;;;;;0.40;0.40;;;;;;;16.12;49.56;94803.72;5072828;28;20042;-84
2022/11/12 02:39:26;;;;;;;0.20;0.20;;;;;;;16.12;49.44;94800.97;5088655;28;20043;-84
2022/11/12 02:41:52;;;;;;;0.20;0.20;;;;;;;16.11;49.48;94808.41;5089863;28;20476;-84
2022/11/12 02:44:17;;;;;;;0.50;0.43;;;;;;;16.10;49.51;94801.44;5086417;28;20060;-84
2022/11/12 02:46:43;;;;;;;0.35;0.30;;;;;;;16.12;49.36;94806.44;5076443;28;20032;-84
2022/11/12 02:49:08;;;;;;;0.80;0.50;;;;;;;16.12;49.38;94800.97;5068902;28;20044;-84
2022/11/12 02:51:33;;;;;;;0.40;0.40;;;;;;;16.10;49.64;94806.91;5090717;28;20113;-84
2022/11/12 02:53:59;;;;;;;0.47;0.40;;;;;;;16.14;49.33;94798.53;5080773;28;20505;-84
2022/11/12 02:56:24;;;;;;;0.50;0.30;;;;;;;16.11;49.24;94799.47;5075111;28;20039;-84
2022/11/12 02:58:50;;;;;;;0.30;0.30;;;;;;;16.12;49.23;94806.44;5071897;28;20044;-84
2022/11/12 03:01:16;;;;;;;0.63;0.40;;;;;;;16.11;49.73;94807.66;5089312;28;20035;-84
2022/11/12 03:03:44;;;;;;;0.40;0.40;;;;;;;16.11;49.07;94800.22;5080224;28;20044;-84
2022/11/12 03:06:10;;;;;;;0.40;0.30;;;;;;;16.12;49.62;94809.16;5076091;27;20034;-84
2022/11/12 03:08:35;;;;;;;0.40;0.30;;;;;;;16.11;49.50;94802.94;5088918;28;20036;-84
2022/11/12 03:11:10;;;;;;;0.50;0.40;;;;;;;16.12;49.65;94806.44;5067930;28;20052;-84
2022/11/12 03:13:35;;;;;;;0.30;0.30;;;;;;;16.12;49.27;94809.16;5054017;28;20043;-84
2022/11/12 03:16:00;;;;;;;0.30;0.30;;;;;;;16.11;49.57;94808.41;5071215;28;20446;-84
2022/11/12 03:18:26;;;;;;;0.30;0.30;;;;;;;16.11;49.30;94802.94;5062771;28;20041;-84
2022/11/12 03:20:51;;;;;;;0.20;0.20;;;;;;;16.13;49.49;94801.75;5023449;28;20203;-84
2022/11/12 03:23:17;;;;;;;0.30;0.30;;;;;;;16.14;49.33;94804.00;5070889;28;20028;-84
2022/11/12 03:25:42;;;;;;;0.30;0.20;;;;;;;16.12;49.50;94800.97;5030787;28;20044;-84
2022/11/12 03:28:12;;;;;;;0.50;0.30;;;;;;;16.09;49.63;94796.44;5014116;28;20045;-84
2022/11/12 03:30:38;;;;;;;0.40;0.38;;;;;;;16.08;49.36;94801.16;5015100;28;20069;-84
2022/11/12 03:33:04;;;;;;;0.22;0.22;;;;;;;16.06;49.48;94795.38;5013384;28;20041;-84
2022/11/12 03:35:29;;;;;;;0.55;0.30;;;;;;;16.09;49.04;94791.75;5014433;28;20377;-84
2022/11/12 03:37:54;;;;;;;0.32;0.22;;;;;;;16.08;49.51;94787.50;5047243;28;20033;-84
2022/11/12 03:40:20;;;;;;;0.30;0.30;;;;;;;16.07;49.40;94786.00;5047110;28;20053;-84
2022/11/12 03:42:46;;;;;;;0.28;0.28;;;;;;;16.13;49.21;94790.81;5029953;28;20032;-83
2022/11/12 03:45:12;;;;;;;0.30;0.30;;;;;;;16.10;49.57;94789.78;5025430;28;20041;-84
2022/11/12 03:47:42;;;;;;;0.20;0.20;;;;;;;16.10;49.64;94781.59;5017171;28;20044;-84
2022/11/12 03:50:09;;;;;;;0.38;0.25;;;;;;;16.11;49.32;94783.84;5034399;28;20407;-84
2022/11/12 03:52:34;;;;;;;0.13;0.13;;;;;;;16.09;49.47;94789.00;5031499;28;20085;-84
2022/11/12 03:55:00;;;;;;;0.20;0.20;;;;;;;16.08;49.32;94778.56;5043058;28;20045;-84
2022/11/12 03:57:25;;;;;;;0.40;0.30;;;;;;;16.07;49.62;94798.88;5082487;28;20152;-84
2022/11/12 03:59:51;;;;;;;0.30;0.30;;;;;;;16.08;49.28;94784.03;5092338;28;20482;-84
2022/11/12 04:02:16;;;;;;;0.30;0.20;;;;;;;16.09;49.57;94791.00;5091572;28;20038;-84
2022/11/12 04:10:09;;;;;;;0.30;0.30;;;;;;;16.10;49.03;94782.34;5102206;28;20105;-84
2022/11/12 04:15:19;;;;;;;0.20;0.20;;;;;;;16.10;49.26;94778.84;5086161;28;20034;-84
2022/11/12 04:21:49;;;;;;;0.40;0.40;;;;;;;16.08;49.23;94781.28;5108781;28;20043;-84
2022/11/12 04:23:31;;;;;;;0.30;0.30;;;;;;;16.10;48.89;94781.59;5100529;28;20047;-84
2022/11/12 04:30:14;;;;;;;0.50;0.30;;;;;;;16.10;48.95;94776.13;5083048;28;20034;-84
2022/11/12 04:31:26;;;;;;;0.20;0.20;;;;;;;16.06;49.41;94784.47;5094039;28;20036;-84
2022/11/12 04:33:52;;;;;;;0.32;0.20;;;;;;;16.08;49.31;94779.31;5090824;28;20093;-84
2022/11/12 04:36:17;;;;;;;0.20;0.20;;;;;;;16.06;49.41;94776.28;5070510;28;20434;-84
2022/11/12 04:38:42;;;;;;;0.20;0.20;;;;;;;16.08;49.29;94782.06;5058705;28;20058;-84
2022/11/12 04:46:36;;;;;;;0.20;0.20;;;;;;;16.07;49.00;94775.09;5107746;28;20042;-84
2022/11/12 04:49:01;;;;;;;0.25;0.25;;;;;;;16.10;49.44;94774.16;5079934;28;20085;-84
2022/11/12 04:54:11;;;;;;;0.20;0.20;;;;;;;16.08;49.18;94767.66;5079643;28;20051;-84
2022/11/12 04:56:36;;;;;;;0.22;0.22;;;;;;;16.07;49.37;94771.59;5053989;28;20040;-84
2022/11/12 04:59:01;;;;;;;1.10;0.35;;;;;;;16.06;49.21;94764.63;5088344;28;20343;-84
2022/11/12 05:01:27;;;;;;;0.20;0.20;;;;;;;16.09;49.49;94771.91;5090918;28;20035;-84
2022/11/12 05:03:52;;;;;;;0.20;0.20;;;;;;;16.04;49.34;94765.09;5082286;28;20048;-84
2022/11/12 05:09:01;;;;;;;0.20;0.20;;;;;;;16.05;49.14;94761.16;5095478;28;20051;-83
2022/11/12 05:11:27;;;;;;;0.20;0.20;;;;;;;16.10;49.22;94765.22;5088673;28;20036;-84
2022/11/12 05:13:52;;;;;;;0.40;0.28;;;;;;;16.08;49.23;94770.38;5082118;28;20138;-84
2022/11/12 05:16:17;;;;;;;0.20;0.20;;;;;;;16.04;49.33;94769.78;5086688;28;20756;-84
2022/11/12 05:18:43;;;;;;;0.20;0.20;;;;;;;16.08;49.33;94778.56;5072996;28;20032;-84
2022/11/12 05:23:52;;;;;;;0.20;0.20;;;;;;;16.06;49.40;94776.28;5087038;28;20564;-84
2022/11/12 05:26:17;;;;;;;0.20;0.20;;;;;;;16.07;49.24;94782.50;5071697;28;20301;-84
2022/11/12 05:28:43;;;;;;;0.35;0.30;;;;;;;16.08;49.35;94778.56;5073196;28;20036;-84
2022/11/12 05:31:08;;;;;;;0.20;0.20;;;;;;;16.08;49.54;94781.28;5107007;27;20425;-84
2022/11/12 05:33:34;;;;;;;0.20;0.20;;;;;;;16.08;49.08;94781.28;5108363;28;20046;-84
2022/11/12 05:35:59;;;;;;;0.10;0.10;;;;;;;16.06;49.24;94775.53;5109072;28;20044;-84
2022/11/12 05:38:24;;;;;;;0.20;0.20;;;;;;;16.08;49.04;94781.28;5103151;28;20036;-84
2022/11/12 05:40:50;;;;;;;0.17;0.15;;;;;;;16.07;49.25;94780.53;5050513;28;20147;-84
2022/11/12 05:43:15;;;;;;;0.20;0.20;;;;;;;16.05;49.56;94782.97;5087657;28;20036;-84
2022/11/12 05:45:42;;;;;;;0.32;0.30;;;;;;;16.06;49.45;94789.19;5075019;28;20486;-84
2022/11/12 05:48:07;;;;;;;0.13;0.13;;;;;;;16.07;49.12;94785.22;5059226;28;20039;-84
2022/11/12 05:50:33;;;;;;;0.30;0.30;;;;;;;16.02;49.13;94770.25;5090229;28;20040;-84
2022/11/12 05:52:58;;;;;;;0.10;0.10;;;;;;;16.05;49.02;94782.97;5107207;28;20365;-84
2022/11/12 05:55:24;;;;;;;0.20;0.20;;;;;;;16.07;49.65;94787.97;5090528;28;20320;-84
2022/11/12 05:57:49;;;;;;;0.10;0.10;;;;;;;16.06;49.69;94789.19;5077665;28;20505;-84
2022/11/12 06:00:15;;;;;;;0.15;0.15;;;;;;;16.06;49.53;94789.19;5106144;28;20043;-84
2022/11/12 06:02:41;;;;;;;0.40;0.20;;;;;;;16.05;49.03;94782.22;5073122;28;20027;-84
2022/11/12 06:05:07;;;;;;;0.20;0.20;;;;;;;16.05;49.02;94791.16;5106433;28;20434;-84
2022/11/12 06:07:32;;;;;;;0.32;0.32;;;;;;;16.03;49.10;94793.59;5069263;28;20089;-84
2022/11/12 06:09:57;;;;;;;0.10;0.10;;;;;;;16.06;48.75;94795.38;5062810;28;20051;-84
2022/11/12 06:12:23;;;;;;;0.15;0.15;;;;;;;16.04;49.37;94799.78;5086138;28;20089;-84
2022/11/12 06:14:48;;;;;;;0.20;0.20;;;;;;;16.04;49.51;94799.78;5076626;28;20394;-84
2022/11/12 06:17:14;;;;;;;0.20;0.20;;;;;;;16.02;49.15;94792.06;5069073;28;20036;-84
2022/11/12 06:19:39;;;;;;;0.13;0.13;;;;;;;16.06;49.36;94797.38;5053506;28;20040;-84
2022/11/12 06:22:05;;;;;;;0.30;0.20;;;;;;;16.04;49.17;94800.56;5092085;28;20038;-84
2022/11/12 06:24:30;;;;;;;0.30;0.30;;;;;;;16.05;49.42;94804.03;5085856;28;20048;-84
2022/11/12 06:26:55;;;;;;;0.20;0.20;;;;;;;16.06;49.21;94809.03;5069377;28;20036;-84
2022/11/12 06:29:21;;;;;;;0.20;0.20;;;;;;;16.10;48.96;94811.59;5102033;28;20035;-84
2022/11/12 06:31:46;;;;;;;0.22;0.22;;;;;;;16.05;48.93;94812.97;5106770;28;20555;-84
2022/11/12 06:34:11;;;;;;;0.60;0.38;;;;;;;16.05;48.96;94804.78;5071924;28;20035;-84
2022/11/12 06:36:37;;;;;;;0.55;0.30;;;;;;;16.09;48.91;94810.09;5089232;28;20047;-84
2022/11/12 06:39:02;;;;;;;0.20;0.17;;;;;;;16.09;49.25;94813.56;5085116;28;20040;-85
2022/11/12 06:41:28;;;;;;;0.10;0.10;;;;;;;16.10;49.06;94806.13;5069320;28;20383;-84
2022/11/12 06:43:53;;;;;;;0.17;0.17;;;;;;;16.08;48.78;94811.28;5069529;28;20036;-84
2022/11/12 06:46:19;;;;;;;0.20;0.20;;;;;;;16.08;49.00;94814.03;5092353;28;20036;-84
2022/11/12 06:48:44;;;;;;;0.30;0.20;;;;;;;16.07;48.93;94810.53;5089066;28;20047;-84
2022/11/12 06:51:15;;;;;;;0.20;0.20;;;;;;;16.07;49.45;94809.78;5072228;28;20085;-84
2022/11/12 06:53:40;;;;;;;0.28;0.20;;;;;;;16.06;49.29;94814.47;5089360;28;20094;-84
2022/11/12 06:56:06;;;;;;;0.20;0.20;;;;;;;16.09;49.10;94810.84;5089263;28;20383;-84
2022/11/12 06:58:31;;;;;;;0.20;0.20;;;;;;;16.09;49.36;94816.28;5101945;28;20047;-84
2022/11/12 07:00:57;;;;;;;0.20;0.20;;;;;;;16.08;49.21;94814.78;5070906;28;20050;-84
2022/11/12 07:03:22;;;;;;;0.20;0.20;;;;;;;16.06;49.12;94825.41;5106299;28;20525;-84
2022/11/12 07:05:47;;;;;;;0.20;0.20;;;;;;;16.09;49.04;94815.53;5071858;28;20555;-84
2022/11/12 07:08:13;;;;;;;0.55;0.30;;;;;;;16.10;49.04;94825.22;5088891;28;20050;-83
2022/11/12 07:10:38;;;;;;;1.85;0.77;;;;;;;16.08;49.07;94816.75;5076706;28;20040;-84
2022/11/12 07:13:03;;;;;;;1.52;1.00;;;;;;;16.09;49.12;94824.47;5080342;28;20040;-85
2022/11/12 07:15:29;;;;;;;2.22;1.77;;;;;;;16.10;49.09;94817.06;5073962;28;20571;-84
2022/11/12 07:17:54;;;;;;;2.75;1.88;;;;;;;16.11;48.96;94824.78;5088983;28;20474;-84
2022/11/12 07:20:20;;;;;;;2.92;2.13;;;;;;;16.12;49.21;94828.25;5087178;28;20286;-84
2022/11/12 07:22:45;;;;;;;3.33;2.50;;;;;;;16.13;49.14;94821.59;5105716;28;20047;-84
2022/11/12 07:25:12;;;;;;;3.28;2.60;;;;;;;16.14;49.12;94814.91;5068057;28;20044;-84
2022/11/12 07:27:37;;;;;;;2.63;1.92;;;;;;;16.16;49.53;94828.84;5052648;28;20047;-83
2022/11/12 07:30:03;;;;;;;2.22;2.03;;;;;;;16.15;49.39;94821.88;5063658;28;20489;-85
2022/11/12 07:32:29;;;;;;;1.85;1.70;;;;;;;16.17;49.42;94818.69;5092614;28;20036;-84
2022/11/12 07:34:54;;;;;;;2.42;1.80;;;;;;;16.19;49.19;94819.00;5075297;28;20465;-83
2022/11/12 07:37:20;;;;;;;1.60;1.50;;;;;;;16.17;49.28;94807.78;5075381;27;20043;-84
2022/11/12 07:39:45;;;;;;;1.80;1.45;;;;;;;16.18;49.12;94814.75;5088589;28;20254;-84
2022/11/12 07:42:10;;;;;;;2.67;1.60;;;;;;;16.19;48.83;94824.44;5054954;28;20526;-84
2022/11/12 07:44:36;;;;;;;1.77;1.67;;;;;;;16.20;49.23;94815.06;5095670;28;20042;-84
2022/11/12 07:47:01;;;;;;;2.53;1.88;;;;;;;16.21;49.00;94816.56;5071896;28;20059;-84
2022/11/12 07:49:26;;;;;;;1.83;1.50;;;;;;;16.22;49.09;94818.06;5076211;28;20054;-84
2022/11/12 07:51:52;;;;;;;2.10;1.60;;;;;;;16.22;48.90;94826.25;5091944;28;20125;-84
2022/11/12 07:54:17;;;;;;;1.52;1.40;;;;;;;16.22;49.15;94820.81;5074789;28;20519;-84
2022/11/12 07:56:43;;;;;;;1.20;1.10;;;;;;;16.22;48.78;94815.34;5092523;28;20039;-84
2022/11/12 07:59:08;;;;;;;1.73;1.63;;;;;;;16.24;48.69;94826.56;5081499;28;20035;-84
2022/11/12 08:01:38;;;;;;;3.40;1.40;;;;;;;16.21;48.92;94816.56;5069382;28;20028;-84
2022/11/12 08:04:05;;;;;;;2.35;1.45;;;;;;;16.21;49.13;94816.56;5062133;28;20044;-84
2022/11/12 08:06:31;;;;;;;2.40;1.45;;;;;;;16.23;49.13;94823.06;5055206;28;20112;-84
2022/11/12 08:08:57;;;;;;;1.88;1.30;;;;;;;16.24;48.86;94824.56;5071706;28;20052;-84
2022/11/12 08:11:22;;;;;;;1.48;1.33;;;;;;;16.24;48.55;94815.63;5090684;28;20398;-84
2022/11/12 08:13:48;;;;;;;1.60;1.40;;;;;;;16.23;49.04;94817.63;5075511;28;20070;-84
2022/11/12 08:16:13;;;;;;;1.70;1.50;;;;;;;16.26;48.86;94821.38;5109615;27;20047;-84
2022/11/12 08:18:39;;;;;;;2.45;1.50;;;;;;;16.26;49.06;94824.84;5099578;28;20074;-84
2022/11/12 08:21:06;;;;;;;1.98;1.58;;;;;;;16.27;48.87;94829.09;5099336;28;20040;-84
2022/11/12 08:23:32;;;;;;;2.03;1.40;;;;;;;16.26;49.01;94818.63;5091448;28;20027;-84
2022/11/12 08:25:58;;;;;;;1.50;1.27;;;;;;;16.25;49.00;94828.78;5059625;28;20145;-84
2022/11/12 08:28:23;;;;;;;1.88;1.30;;;;;;;16.26;48.56;94837.72;5054732;28;20047;-84
2022/11/12 08:30:49;;;;;;;1.08;0.98;;;;;;;16.27;48.91;94840.00;5077547;28;20645;-84
2022/11/12 08:33:14;;;;;;;1.50;1.33;;;;;;;16.27;49.00;94839.25;5090963;28;20039;-84
2022/11/12 08:35:40;;;;;;;2.00;1.40;;;;;;;16.28;48.70;94835.31;5095417;28;20046;-84
2022/11/12 08:38:06;;;;;;;1.67;1.30;;;;;;;16.29;48.67;94831.34;5054173;28;20406;-84
2022/11/12 08:40:32;;;;;;;1.58;1.40;;;;;;;16.28;48.64;94846.97;5090305;28;20067;-84
2022/11/12 08:43:05;;;;;;;1.95;1.33;;;;;;;16.27;48.95;94839.25;5091754;28;20119;-84
2022/11/12 08:45:35;;;;;;;2.20;1.40;;;;;;;16.28;49.06;94838.78;5091168;28;20039;-84
2022/11/12 08:48:01;;;;;;;1.48;1.38;;;;;;;16.29;48.73;94839.53;5087728;28;20032;-84
2022/11/12 08:50:27;;;;;;;3.45;1.25;;;;;;;16.28;48.83;94843.50;5063729;28;20047;-84
2022/11/12 08:52:52;;;;;;;1.65;1.27;;;;;;;16.29;48.77;94855.91;5087560;28;20519;-84
2022/11/12 08:55:17;;;;;;;2.20;1.40;;;;;;;16.28;49.02;94843.50;5078412;28;20040;-84
2022/11/12 08:57:43;;;;;;;2.75;1.38;;;;;;;16.31;49.16;94843.31;5091331;28;20036;-84
2022/11/12 09:00:10;;;;;;;1.60;1.40;;;;;;;16.30;48.99;94844.53;5081747;28;20542;-85
2022/11/12 09:02:36;;;;;;;1.70;1.33;;;;;;;16.31;49.04;94842.56;5087258;28;20042;-84
2022/11/12 09:05:01;;;;;;;1.58;1.10;;;;;;;16.31;49.00;94840.59;5076206;28;20035;-84
2022/11/12 09:07:26;;;;;;;1.50;1.40;;;;;;;16.32;49.06;94849.53;5090809;28;20039;-84
2022/11/12 09:09:52;;;;;;;1.95;1.50;;;;;;;16.31;48.63;94850.75;5107382;28;20032;-84
2022/11/12 09:12:18;;;;;;;1.90;1.30;;;;;;;16.30;48.78;94847.28;5081150;28;20105;-84
2022/11/12 09:14:44;;;;;;;1.85;1.27;;;;;;;16.31;49.05;94851.50;5087761;28;20035;-84
2022/11/12 09:17:10;;;;;;;2.17;1.17;;;;;;;16.33;49.03;94853.78;5070123;28;20052;-84
2022/11/12 09:19:35;;;;;;;1.50;1.10;;;;;;;16.34;49.17;94852.56;5067402;28;20055;-84
2022/11/12 09:22:00;;;;;;;2.25;1.20;;;;;;;16.32;49.05;94852.28;5056607;28;20032;-84
2022/11/12 09:24:26;;;;;;;1.85;1.30;;;;;;;16.32;49.13;94857.72;5082612;28;20040;-84
2022/11/12 09:26:52;;;;;;;1.20;1.10;;;;;;;16.33;48.77;94859.25;5070766;28;20047;-84
2022/11/12 09:29:18;;;;;;;1.42;1.10;;;;;;;16.34;49.22;94863.47;5053386;28;20115;-84
2022/11/12 09:31:43;;;;;;;1.40;1.30;;;;;;;16.35;48.99;94859.53;5086472;28;20113;-84
2022/11/12 09:34:08;;;;;;;1.52;1.10;;;;;;;16.34;48.80;94863.47;5073116;28;20405;-84
2022/11/12 09:36:34;;;;;;;1.30;1.20;;;;;;;16.34;48.70;94868.94;5073052;28;20071;-84
2022/11/12 09:38:59;;;;;;;1.35;1.25;;;;;;;16.31;48.95;94862.44;5087199;28;20040;-84
2022/11/12 09:41:27;;;;;;;1.88;1.20;;;;;;;16.32;48.91;94858.47;5081495;28;20322;-84
2022/11/12 09:44:00;;;;;;;1.67;1.27;;;;;;;16.33;48.75;94862.72;5105377;28;20039;-84
2022/11/12 09:46:42;;;;;;;1.90;1.35;;;;;;;16.32;49.13;94860.44;5058819;28;20063;-84
2022/11/12 09:49:31;;;;;;;2.08;1.60;;;;;;;16.32;48.88;94858.47;5074374;27;20146;-84
2022/11/12 09:52:18;;;;;;;1.70;1.13;;;;;;;16.32;49.35;94846.81;5085634;28;20044;-85
2022/11/12 09:54:43;;;;;;;1.70;1.30;;;;;;;16.32;49.23;94846.81;5080579;28;20498;-84
2022/11/12 09:57:10;;;;;;;2.53;1.35;;;;;;;16.31;48.93;94856.97;5069528;28;20039;-84
2022/11/12 09:59:36;;;;;;;1.42;1.10;;;;;;;16.32;49.25;94852.28;5056692;28;20440;-84
2022/11/12 10:02:22;;;;;;;1.23;1.13;;;;;;;16.31;48.84;94848.78;5086429;28;20363;-84
2022/11/12 10:05:21;;;;;;;1.38;1.23;;;;;;;16.32;49.21;94846.81;5086065;28;20040;-84
2022/11/12 10:08:02;;;;;;;1.20;1.00;;;;;;;16.33;49.01;94853.78;5086396;28;20052;-84
2022/11/12 10:10:45;;;;;;;1.10;1.00;;;;;;;16.32;49.08;94852.28;5089204;28;20517;-84
2022/11/12 10:13:23;;;;;;;2.03;1.23;;;;;;;16.31;49.19;94851.50;5105924;28;20130;-84
2022/11/12 10:19:10;;;;;;;1.60;1.10;;;;;;;16.31;49.02;94848.78;5083640;28;20063;-84
2022/11/12 10:21:36;;;;;;;1.48;1.38;;;;;;;16.31;49.04;94846.06;5085934;28;20071;-84
2022/11/12 10:24:01;;;;;;;1.20;1.10;;;;;;;16.32;48.95;94841.34;5095726;28;20461;-84
2022/11/12 10:26:27;;;;;;;0.95;0.90;;;;;;;16.32;49.39;94833.91;5093572;28;20784;-84
2022/11/12 10:29:17;;;;;;;1.15;0.90;;;;;;;16.32;48.96;94831.19;5069675;28;20036;-84
2022/11/12 10:31:43;;;;;;;0.93;0.93;;;;;;;16.32;49.10;94831.19;5086032;28;20044;-84
2022/11/12 10:34:18;;;;;;;1.50;1.27;;;;;;;16.31;49.13;94829.69;5060077;28;20510;-84
2022/11/12 10:36:55;;;;;;;1.05;0.93;;;;;;;16.32;49.36;94824.97;5069261;28;20407;-84
2022/11/12 10:39:32;;;;;;;1.48;0.98;;;;;;;16.31;49.37;94829.69;5069122;28;20460;-84
2022/11/12 10:42:08;;;;;;;1.42;1.13;;;;;;;16.31;49.65;94824.22;5102251;28;20036;-84
2022/11/12 10:44:34;;;;;;;1.27;0.98;;;;;;;16.33;49.30;94821.78;5059455;28;20052;-84
2022/11/12 10:47:25;;;;;;;1.92;1.20;;;;;;;16.32;49.25;94823.00;5068833;28;20055;-84
2022/11/12 10:50:09;;;;;;;1.45;1.00;;;;;;;16.32;49.16;94825.75;5004203;28;20069;-84
2022/11/12 10:52:34;;;;;;;1.85;1.02;;;;;;;16.33;49.04;94827.25;5004169;28;20042;-84
2022/11/12 10:55:14;;;;;;;1.35;1.08;;;;;;;16.31;49.32;94824.22;5008041;28;20052;-84
2022/11/12 10:57:40;;;;;;;1.17;1.07;;;;;;;16.32;49.09;94822.25;4991768;28;20558;-85
2022/11/12 11:00:12;;;;;;;1.67;1.27;;;;;;;16.31;49.04;94824.22;4991356;28;20076;-85
2022/11/12 11:02:45;;;;;;;1.38;1.20;;;;;;;16.31;49.33;94828.94;5008393;28;20531;-84
2022/11/12 11:05:36;;;;;;;1.35;1.02;;;;;;;16.31;49.32;94818.75;4994780;28;20115;-84
2022/11/12 11:08:02;;;;;;;1.05;0.80;;;;;;;16.32;49.10;94824.97;5011435;28;20435;-84
2022/11/12 11:10:29;;;;;;;1.33;0.93;;;;;;;16.29;48.99;94818.47;4994709;28;20049;-84
2022/11/12 11:13:15;;;;;;;2.05;1.23;;;;;;;16.32;49.15;94819.53;5010844;28;20562;-84
2022/11/12 11:15:41;;;;;;;1.35;1.08;;;;;;;16.32;48.77;94822.25;5011224;28;20526;-84
2022/11/12 11:18:10;;;;;;;1.13;1.00;;;;;;;16.33;48.80;94829.22;4978614;28;20045;-85
2022/11/12 11:20:42;;;;;;;1.23;1.00;;;;;;;16.32;48.98;94817.56;4978904;28;20041;-84
2022/11/12 11:23:19;;;;;;;0.85;0.80;;;;;;;16.32;49.19;94823.00;4975303;28;20041;-84
2022/11/12 11:25:44;;;;;;;1.05;0.90;;;;;;;16.33;48.37;94816.34;4997008;28;20041;-84
2022/11/12 11:28:30;;;;;;;0.98;0.88;;;;;;;16.32;48.59;94817.56;5092604;27;20096;-84
2022/11/12 11:31:05;;;;;;;3.72;1.20;;;;;;;16.32;48.94;94808.59;5088252;28;20039;-84
2022/11/12 11:33:43;;;;;;;1.80;1.02;;;;;;;16.33;48.34;94818.31;5071950;28;20407;-84
2022/11/12 11:36:19;;;;;;;0.80;0.80;;;;;;;16.33;48.91;94815.56;5067894;28;20058;-84
2022/11/12 11:38:48;;;;;;;1.50;1.00;;;;;;;16.33;49.08;94816.34;5071723;28;20032;-84
2022/11/12 11:41:20;;;;;;;1.95;0.80;;;;;;;16.32;48.58;94814.06;5088178;28;20127;-84
2022/11/12 11:44:05;;;;;;;0.93;0.80;;;;;;;16.33;48.84;94815.56;5072726;28;20043;-84
2022/11/12 11:46:43;;;;;;;1.45;1.02;;;;;;;16.32;49.42;94814.06;5080686;28;20040;-84
2022/11/12 11:49:19;;;;;;;1.67;0.80;;;;;;;16.33;49.07;94808.16;5108356;27;20035;-84
2022/11/12 11:52:11;;;;;;;1.02;0.75;;;;;;;16.32;48.88;94803.16;5099435;28;20047;-84
2022/11/12 11:55:07;;;;;;;0.80;0.80;;;;;;;16.33;48.61;94808.16;5098881;28;20086;-84
2022/11/12 11:57:44;;;;;;;1.02;0.73;;;;;;;16.33;48.95;94805.41;5092209;28;20109;-84
2022/11/12 12:00:24;;;;;;;1.45;0.98;;;;;;;16.33;48.78;94805.41;5076231;28;20498;-84
2022/11/12 12:03:22;;;;;;;1.25;0.90;;;;;;;16.33;48.77;94794.50;5091039;28;20570;-84
2022/11/12 12:06:20;;;;;;;1.17;0.70;;;;;;;16.34;48.74;94795.25;5088126;28;20032;-84
2022/11/12 12:09:06;;;;;;;1.02;0.90;;;;;;;16.33;48.90;94797.22;5088508;28;20093;-84
2022/11/12 12:11:57;;;;;;;0.77;0.70;;;;;;;16.33;49.09;94794.50;5069976;28;20036;-84
2022/11/12 12:14:50;;;;;;;0.77;0.70;;;;;;;16.34;48.95;94790.56;5087790;28;20093;-84